createdAt,value
2019-03-22T00:03:24.738Z,100009.00
2019-03-22T00:06:06.266Z,100070.00
2019-03-22T00:08:47.750Z,100008.00
2019-03-22T00:11:29.131Z,100015.00
2019-03-22T00:14:10.611Z,100006.00
2019-03-22T00:16:51.241Z,99984.00
2019-03-22T00:19:32.860Z,100018.00
2019-03-22T00:22:13.690Z,100000.00
2019-03-22T00:24:55.128Z,100006.00
2019-03-22T00:27:36.603Z,100006.00
2019-03-22T00:30:17.438Z,100037.00
2019-03-22T00:32:58.199Z,100012.00
2019-03-22T00:35:39.099Z,99982.00
2019-03-22T00:38:20.675Z,99982.00
2019-03-22T00:41:01.274Z,99985.00
2019-03-22T00:43:42.029Z,99956.00
2019-03-22T00:46:23.527Z,99969.00
2019-03-22T00:49:04.883Z,99960.00
2019-03-22T00:51:45.629Z,99972.00
2019-03-22T00:54:27.357Z,99968.00
2019-03-22T00:57:08.302Z,100005.00
2019-03-22T00:59:49.406Z,99976.00
2019-03-22T01:02:30.379Z,100025.00
2019-03-22T01:05:11.419Z,99976.00
2019-03-22T01:07:52.670Z,100102.00
2019-03-22T01:10:33.556Z,99877.00
2019-03-22T01:13:14.388Z,99991.00
2019-03-22T01:15:55.091Z,100006.00
2019-03-22T01:18:36.534Z,99848.00
2019-03-22T01:21:17.467Z,99968.00
2019-03-22T01:23:59.994Z,99969.00
2019-03-22T01:26:41.287Z,99969.00
2019-03-22T01:29:22.879Z,99969.00
2019-03-22T01:32:04.440Z,99954.00
2019-03-22T01:34:45.257Z,99929.00
2019-03-22T01:37:25.865Z,99999.00
2019-03-22T01:40:06.654Z,99968.00
2019-03-22T01:42:48.280Z,99960.00
2019-03-22T01:45:28.970Z,99946.00
2019-03-22T01:48:09.739Z,100012.00
2019-03-22T01:50:50.572Z,99968.00
2019-03-22T01:53:31.753Z,99958.00
2019-03-22T01:56:13.214Z,99960.00
2019-03-22T01:58:54.830Z,99955.00
2019-03-22T02:01:55.291Z,99954.00
2019-03-22T02:04:36.079Z,99949.00
2019-03-22T02:07:17.641Z,99960.00
2019-03-22T02:09:58.535Z,99978.00
2019-03-22T02:12:39.367Z,99974.00
2019-03-22T02:15:20.056Z,99957.00
2019-03-22T02:18:01.609Z,99989.00
2019-03-22T02:20:42.411Z,99952.00
2019-03-22T02:23:23.130Z,99955.00
2019-03-22T02:26:04.518Z,99885.00
2019-03-22T02:28:46.072Z,99960.00
2019-03-22T02:31:26.791Z,99944.00
2019-03-22T02:34:07.912Z,99948.00
2019-03-22T02:36:49.137Z,99984.00
2019-03-22T02:39:30.691Z,99942.00
2019-03-22T02:42:11.466Z,99946.00
2019-03-22T02:44:52.260Z,99947.00
2019-03-22T02:47:33.043Z,99979.00
2019-03-22T02:50:18.773Z,99982.00
2019-03-22T02:52:56.968Z,99979.00
2019-03-22T02:55:37.627Z,99937.00
2019-03-22T02:58:20.991Z,99938.00
2019-03-22T03:01:00.786Z,99947.00
2019-03-22T03:03:41.642Z,99947.00
2019-03-22T03:06:22.713Z,99850.00
2019-03-22T03:09:04.688Z,99944.00
2019-03-22T03:11:46.090Z,99936.00
2019-03-22T03:14:27.556Z,99951.00
2019-03-22T03:17:08.333Z,99954.00
2019-03-22T03:19:49.861Z,99939.00
2019-03-22T03:22:30.545Z,99943.00
2019-03-22T03:25:11.918Z,99857.00
2019-03-22T03:27:52.670Z,99941.00
2019-03-22T03:30:33.335Z,99946.00
2019-03-22T03:33:14.895Z,99987.00
2019-03-22T03:35:55.695Z,99951.00
2019-03-22T03:38:37.045Z,99878.00
2019-03-22T03:41:18.716Z,99934.00
2019-03-22T03:44:00.323Z,99938.00
2019-03-22T03:46:41.869Z,99948.00
2019-03-22T03:49:22.526Z,99939.00
2019-03-22T03:52:04.113Z,99939.00
2019-03-22T03:54:44.866Z,99944.00
2019-03-22T03:57:26.087Z,99984.00
2019-03-22T04:00:06.823Z,99934.00
2019-03-22T04:02:47.692Z,99942.00
2019-03-22T04:05:28.649Z,99924.00
2019-03-22T04:08:10.241Z,99930.00
2019-03-22T04:10:51.861Z,99937.00
2019-03-22T04:13:33.330Z,99968.00
2019-03-22T04:16:15.027Z,99934.00
2019-03-22T04:18:56.167Z,99934.00
2019-03-22T04:21:37.407Z,99936.00
2019-03-22T04:24:18.951Z,99937.00
2019-03-22T04:26:59.712Z,99940.00
2019-03-22T04:29:41.069Z,99940.00
2019-03-22T04:32:22.520Z,99938.00
2019-03-22T04:35:03.383Z,99946.00
2019-03-22T04:37:44.872Z,99951.00
2019-03-22T04:40:26.318Z,99934.00
2019-03-22T04:43:07.170Z,99938.00
2019-03-22T04:45:48.639Z,99931.00
2019-03-22T04:48:29.327Z,99826.00
2019-03-22T04:51:10.087Z,99928.00
2019-03-22T04:53:51.779Z,99929.00
2019-03-22T04:56:33.268Z,99971.00
2019-03-22T04:59:19.212Z,99924.00
2019-03-22T05:01:57.316Z,100021.00
2019-03-22T05:04:38.349Z,99975.00
2019-03-22T05:07:20.271Z,99924.00
2019-03-22T05:10:01.627Z,99930.00
2019-03-22T05:12:42.750Z,99928.00
2019-03-22T05:15:24.081Z,99928.00
2019-03-22T05:18:05.612Z,99972.00
2019-03-22T05:20:47.196Z,99940.00
2019-03-22T05:23:28.073Z,99934.00
2019-03-22T05:26:09.193Z,99942.00
2019-03-22T05:28:50.521Z,99822.00
2019-03-22T05:31:31.238Z,99932.00
2019-03-22T05:34:12.428Z,100069.00
2019-03-22T05:36:53.983Z,99819.00
2019-03-22T05:39:35.124Z,99932.00
2019-03-22T05:42:16.034Z,99935.00
2019-03-22T05:44:56.967Z,99880.00
2019-03-22T05:47:38.438Z,99949.00
2019-03-22T05:50:20.092Z,99996.00
2019-03-22T05:53:00.819Z,99995.00
2019-03-22T05:55:42.234Z,99934.00
2019-03-22T06:01:28.446Z,100007.00
2019-03-22T06:10:21.363Z,99968.00
2019-03-22T06:22:30.621Z,99987.00
2019-03-22T06:25:12.049Z,100020.00
2019-03-22T06:27:53.402Z,100000.00
2019-03-22T06:30:34.316Z,99992.00
2019-03-22T06:33:15.573Z,99989.00
2019-03-22T06:35:56.960Z,100002.00
2019-03-22T06:41:55.841Z,99978.00
2019-03-22T06:44:37.199Z,99878.00
2019-03-22T06:47:17.893Z,99991.00
2019-03-22T06:50:18.260Z,99986.00
2019-03-22T06:56:15.924Z,99992.00
2019-03-22T07:05:19.494Z,99999.00
2019-03-22T07:08:00.950Z,99955.00
2019-03-22T07:10:42.417Z,100000.00
2019-03-22T07:13:22.962Z,100010.00
2019-03-22T07:16:03.763Z,100024.00
2019-03-22T07:22:23.535Z,100024.00
2019-03-22T07:25:04.224Z,100060.00
2019-03-22T07:27:44.773Z,100028.00
2019-03-22T07:30:26.305Z,100016.00
2019-03-22T07:33:26.423Z,100007.00
2019-03-22T07:36:07.682Z,100017.00
2019-03-22T07:42:27.322Z,100012.00
2019-03-22T07:45:07.421Z,100007.00
2019-03-22T07:48:13.643Z,99976.00
2019-03-22T07:51:00.324Z,99998.00
2019-03-22T07:53:49.000Z,100001.00
2019-03-22T07:56:55.093Z,100003.00
2019-03-22T07:59:43.579Z,100030.00
2019-03-22T08:02:32.077Z,99899.00
2019-03-22T08:05:20.682Z,100040.00
2019-03-22T08:08:09.242Z,100001.00
2019-03-22T08:13:44.576Z,100040.00
2019-03-22T08:16:26.164Z,100000.00
2019-03-22T08:25:48.107Z,99992.00
2019-03-22T08:31:32.332Z,99993.00
2019-03-22T08:34:20.960Z,99996.00
2019-03-22T08:37:09.580Z,99985.00
2019-03-22T08:43:04.492Z,100022.00
2019-03-22T08:45:53.119Z,99982.00
2019-03-22T08:48:40.813Z,99977.00
2019-03-22T08:52:05.988Z,100025.00
2019-03-22T08:54:54.549Z,99981.00
2019-03-22T08:57:43.031Z,99968.00
2019-03-22T09:00:39.143Z,99975.00
2019-03-22T09:03:21.964Z,99964.00
2019-03-22T09:06:10.577Z,99968.00
2019-03-22T09:08:59.245Z,100011.00
2019-03-22T09:12:05.289Z,99972.00
2019-03-22T09:24:19.118Z,99969.00
2019-03-22T09:30:05.108Z,99969.00
2019-03-22T09:32:46.096Z,99978.00
2019-03-22T09:35:26.973Z,99950.00
2019-03-22T09:38:12.752Z,99885.00
2019-03-22T09:40:50.377Z,99953.00
2019-03-22T09:43:31.311Z,99896.00
2019-03-22T09:49:31.124Z,99989.00
2019-03-22T09:52:12.664Z,99934.00
2019-03-22T09:58:11.854Z,99848.00
2019-03-22T10:01:00.401Z,99984.00
2019-03-22T10:06:44.620Z,99940.00
2019-03-22T10:09:50.587Z,99977.00
2019-03-22T10:15:44.874Z,99938.00
2019-03-22T10:18:36.659Z,99932.00
2019-03-22T10:21:23.756Z,99925.00
2019-03-22T10:24:31.668Z,99945.00
2019-03-22T10:30:31.515Z,99874.00
2019-03-22T10:33:22.873Z,99922.00
2019-03-22T10:39:54.436Z,99962.00
2019-03-22T10:42:44.618Z,99864.00
2019-03-22T10:45:33.202Z,99916.00
2019-03-22T10:48:21.903Z,99920.00
2019-03-22T10:51:12.001Z,99908.00
2019-03-22T10:59:31.592Z,99904.00
2019-03-22T11:08:22.568Z,99894.00
2019-03-22T11:11:11.111Z,99885.00
2019-03-22T11:13:51.655Z,99923.00
2019-03-22T11:19:29.590Z,99880.00
2019-03-22T11:22:37.379Z,99874.00
2019-03-22T11:25:27.614Z,99880.00
2019-03-22T11:28:34.333Z,99870.00
2019-03-22T11:34:09.891Z,99881.00
2019-03-22T11:43:19.847Z,99860.00
2019-03-22T11:46:08.400Z,99850.00
2019-03-22T11:52:08.351Z,99840.00
2019-03-22T11:55:14.365Z,99847.00
2019-03-22T12:02:03.173Z,99750.00
2019-03-22T12:04:50.490Z,99714.00
2019-03-22T12:07:39.045Z,99857.00
2019-03-22T12:10:27.838Z,99820.00
2019-03-22T12:13:16.464Z,99818.00
2019-03-22T12:16:22.427Z,99821.00
2019-03-22T12:23:14.266Z,99803.00
2019-03-22T12:26:20.274Z,99841.00
2019-03-22T12:32:33.442Z,99781.00
2019-03-22T12:35:21.792Z,99782.00
2019-03-22T12:45:06.360Z,99773.00
2019-03-22T12:51:34.217Z,99762.00
2019-03-22T12:54:22.756Z,99719.00
2019-03-22T12:57:11.600Z,99648.00
2019-03-22T13:02:49.326Z,99784.00
2019-03-22T13:05:55.690Z,99742.00
2019-03-22T13:08:44.635Z,99741.00
2019-03-22T13:12:08.223Z,99738.00
2019-03-22T13:14:49.932Z,99776.00
2019-03-22T13:17:49.916Z,99730.00
2019-03-22T13:23:34.173Z,99732.00
2019-03-22T13:26:23.108Z,99722.00
2019-03-22T13:31:57.482Z,99730.00
2019-03-22T13:38:25.700Z,99709.00
2019-03-22T13:41:14.476Z,99619.00
2019-03-22T13:44:02.984Z,99713.00
2019-03-22T13:49:44.766Z,99732.00
2019-03-22T13:52:32.980Z,99692.00
2019-03-22T13:59:20.143Z,99684.00
2019-03-22T14:02:10.421Z,99680.00
2019-03-22T14:08:08.161Z,99679.00
2019-03-22T14:10:56.711Z,99567.00
2019-03-22T14:16:42.875Z,99669.00
2019-03-22T14:19:24.417Z,99659.00
2019-03-22T14:22:24.862Z,99689.00
2019-03-22T14:25:06.408Z,99657.00
2019-03-22T14:27:47.033Z,99696.00
2019-03-22T14:30:27.943Z,99645.00
2019-03-22T14:33:13.264Z,99647.00
2019-03-22T14:35:51.442Z,99640.00
2019-03-22T14:38:32.063Z,99670.00
2019-03-22T14:41:13.026Z,99647.00
2019-03-22T14:47:17.377Z,99624.00
2019-03-22T14:49:58.795Z,99584.00
2019-03-22T14:52:40.186Z,99621.00
2019-03-22T14:55:21.231Z,99667.00
2019-03-22T14:58:02.086Z,99652.00
2019-03-22T15:04:21.082Z,99603.00
2019-03-22T15:07:02.469Z,99606.00
2019-03-22T15:16:27.953Z,99599.00
2019-03-22T15:19:27.554Z,99593.00
2019-03-22T15:25:36.388Z,99630.00
2019-03-22T15:28:36.922Z,99592.00
2019-03-22T15:31:36.955Z,99579.00
2019-03-22T15:40:25.282Z,99599.00
2019-03-22T15:43:06.167Z,99586.00
2019-03-22T15:45:47.742Z,99581.00
2019-03-22T15:51:37.310Z,99617.00
2019-03-22T15:54:18.086Z,99564.00
2019-03-22T16:03:24.379Z,99575.00
2019-03-22T16:06:05.930Z,99462.00
2019-03-22T16:08:46.708Z,99563.00
2019-03-22T16:11:27.625Z,99566.00
2019-03-22T16:14:08.273Z,99586.00
2019-03-22T16:16:48.894Z,99570.00
2019-03-22T16:19:30.160Z,99592.00
2019-03-22T16:25:30.755Z,99565.00
2019-03-22T16:28:12.148Z,99580.00
2019-03-22T16:34:21.590Z,99562.00
2019-03-22T16:37:21.060Z,99459.00
2019-03-22T16:40:01.749Z,99459.00
2019-03-22T16:48:54.413Z,99572.00
2019-03-22T16:51:35.448Z,99551.00
2019-03-22T16:54:16.031Z,99560.00
2019-03-22T16:56:57.016Z,99544.00
2019-03-22T17:02:45.998Z,99556.00
2019-03-22T17:05:34.850Z,99465.00
2019-03-22T17:17:04.382Z,99554.00
2019-03-22T17:19:45.088Z,99560.00
2019-03-22T17:22:26.282Z,99547.00
2019-03-22T17:25:07.648Z,99554.00
2019-03-22T17:27:49.015Z,99569.00
2019-03-22T17:30:30.655Z,99580.00
2019-03-22T17:33:12.231Z,99566.00
2019-03-22T17:35:53.780Z,99547.00
2019-03-22T17:38:35.361Z,99551.00
2019-03-22T17:41:15.988Z,99608.00
2019-03-22T17:43:56.748Z,99565.00
2019-03-22T17:46:37.554Z,99565.00
2019-03-22T17:49:18.843Z,99565.00
2019-03-22T17:51:59.641Z,99609.00
2019-03-22T17:54:40.460Z,99557.00
2019-03-22T17:57:21.311Z,99486.00
2019-03-22T18:03:05.272Z,99569.00
2019-03-22T18:05:35.226Z,99567.00
2019-03-22T18:08:24.090Z,99511.00
2019-03-22T18:11:13.079Z,99569.00
2019-03-22T18:13:54.059Z,99580.00
2019-03-22T18:16:34.739Z,99581.00
2019-03-22T18:25:42.890Z,99482.00
2019-03-22T18:31:21.071Z,99593.00
2019-03-22T18:34:09.934Z,99599.00
2019-03-22T18:37:17.472Z,99612.00
2019-03-22T18:43:15.025Z,99607.00
2019-03-22T18:46:03.755Z,99490.00
2019-03-22T18:52:17.538Z,99652.00
2019-03-22T18:57:55.152Z,99667.00
2019-03-22T19:01:02.735Z,99581.00
2019-03-22T19:15:21.108Z,99643.00
2019-03-22T19:18:01.822Z,99609.00
2019-03-22T19:20:42.548Z,99614.00
2019-03-22T19:26:31.977Z,99610.00
2019-03-22T19:29:12.632Z,99664.00
2019-03-22T19:31:54.341Z,99655.00
2019-03-22T19:34:35.401Z,99614.00
2019-03-22T19:37:16.724Z,99611.00
2019-03-22T19:39:58.076Z,99614.00
2019-03-22T19:42:39.577Z,99647.00
2019-03-22T19:45:20.392Z,99609.00
2019-03-22T19:48:02.037Z,99580.00
2019-03-22T19:50:42.752Z,99613.00
2019-03-22T19:53:23.611Z,99609.00
2019-03-22T19:56:04.976Z,99600.00
2019-03-22T19:58:45.691Z,99601.00
2019-03-22T20:04:44.445Z,99612.00
2019-03-22T20:13:54.997Z,99620.00
2019-03-22T20:16:36.167Z,99561.00
2019-03-22T20:19:17.010Z,99641.00
2019-03-22T20:21:58.671Z,99512.00
2019-03-22T20:24:39.413Z,99597.00
2019-03-22T20:30:39.400Z,99488.00
2019-03-22T20:33:20.810Z,99603.00
2019-03-22T20:36:01.524Z,99593.00
2019-03-22T20:38:42.438Z,99494.00
2019-03-22T20:44:42.732Z,99642.00
2019-03-22T20:47:24.003Z,99598.00
2019-03-22T20:50:05.396Z,99633.00
2019-03-22T20:56:03.269Z,99598.00
2019-03-22T21:05:34.970Z,99614.00
2019-03-22T21:15:00.309Z,99603.00
2019-03-22T21:17:41.053Z,99623.00
2019-03-22T21:20:21.799Z,99604.00
2019-03-22T21:23:03.049Z,99600.00
2019-03-22T21:25:43.654Z,99594.00
2019-03-22T21:28:24.665Z,99594.00
2019-03-22T21:31:24.250Z,99596.00
2019-03-22T21:34:24.488Z,99592.00
2019-03-22T21:37:05.390Z,99600.00
2019-03-22T21:39:47.076Z,99588.00
2019-03-22T21:42:28.328Z,99592.00
2019-03-22T21:48:17.103Z,99575.00
2019-03-22T21:51:05.724Z,99524.00
2019-03-22T21:53:54.289Z,99502.00
2019-03-22T22:00:10.702Z,99584.00
2019-03-22T22:02:59.362Z,99586.00
2019-03-22T22:05:48.297Z,99585.00
2019-03-22T22:08:36.905Z,99501.00
2019-03-22T22:11:25.468Z,99608.00
2019-03-22T22:17:22.750Z,99593.00
2019-03-22T22:23:00.647Z,99598.00
2019-03-22T22:31:37.183Z,99595.00
2019-03-22T22:43:21.569Z,99606.00
2019-03-22T22:49:03.893Z,99597.00
2019-03-22T22:52:12.614Z,99594.00
2019-03-22T22:58:08.919Z,99585.00
2019-03-22T23:00:57.468Z,99581.00
2019-03-22T23:03:45.656Z,99483.00
2019-03-22T23:06:55.087Z,99476.00
2019-03-22T23:15:19.498Z,99568.00
2019-03-22T23:23:57.051Z,99564.00
2019-03-22T23:29:57.787Z,99566.00
2019-03-22T23:32:46.371Z,99572.00
2019-03-22T23:35:35.203Z,99577.00
2019-03-22T23:41:54.318Z,99568.00
2019-03-22T23:44:42.798Z,99600.00
2019-03-22T23:47:32.129Z,99566.00
2019-03-22T23:50:20.919Z,99489.00
2019-03-22T23:56:03.887Z,99584.00
2019-03-22T23:58:51.550Z,99562.00
